sensor_id;sensor_type;location;lat;lon;timestamp;pressure;altitude;pressure_sealevel;temperature;humidity
43115;BME280;28727;50.068;14.452;2023-05-19T00:01:17;100062.06;;;12.78;49.52
43115;BME280;28727;50.068;14.452;2023-05-19T00:03:50;100064.34;;;12.72;49.58
43115;BME280;28727;50.068;14.452;2023-05-19T00:06:27;100068.00;;;12.71;49.68
43115;BME280;28727;50.068;14.452;2023-05-19T00:09:04;100064.19;;;12.74;49.91
43115;BME280;28727;50.068;14.452;2023-05-19T00:11:38;100058.88;;;12.74;49.63
43115;BME280;28727;50.068;14.452;2023-05-19T00:14:12;100064.03;;;12.76;49.68
43115;BME280;28727;50.068;14.452;2023-05-19T00:16:44;100054.91;;;12.70;49.86
43115;BME280;28727;50.068;14.452;2023-05-19T00:19:16;100054.91;;;12.70;49.72
43115;BME280;28727;50.068;14.452;2023-05-19T00:21:49;100049.28;;;12.65;50.05
43115;BME280;28727;50.068;14.452;2023-05-19T00:24:24;100046.63;;;12.65;50.11
43115;BME280;28727;50.068;14.452;2023-05-19T00:26:56;100040.97;;;12.68;49.89
43115;BME280;28727;50.068;14.452;2023-05-19T00:29:28;100043.13;;;12.56;50.01
43115;BME280;28727;50.068;14.452;2023-05-19T00:31:59;100040.16;;;12.51;50.46
43115;BME280;28727;50.068;14.452;2023-05-19T00:34:32;100038.31;;;12.44;50.45
43115;BME280;28727;50.068;14.452;2023-05-19T00:37:04;100040.31;;;12.42;50.55
43115;BME280;28727;50.068;14.452;2023-05-19T00:39:35;100038.50;;;12.42;50.77
43115;BME280;28727;50.068;14.452;2023-05-19T00:42:08;100037.97;;;12.39;50.68
43115;BME280;28727;50.068;14.452;2023-05-19T00:44:41;100034.00;;;12.35;50.99
43115;BME280;28727;50.068;14.452;2023-05-19T00:47:13;100029.03;;;12.31;51.01
43115;BME280;28727;50.068;14.452;2023-05-19T00:49:45;100030.69;;;12.32;51.09
43115;BME280;28727;50.068;14.452;2023-05-19T00:52:17;100033.53;;;12.31;51.11
43115;BME280;28727;50.068;14.452;2023-05-19T00:54:50;100026.56;;;12.30;51.06
43115;BME280;28727;50.068;14.452;2023-05-19T00:57:23;100039.09;;;12.20;51.32
43115;BME280;28727;50.068;14.452;2023-05-19T00:59:56;100021.88;;;12.16;51.25
43115;BME280;28727;50.068;14.452;2023-05-19T01:02:28;100031.00;;;12.13;51.71
43115;BME280;28727;50.068;14.452;2023-05-19T01:05:00;100035.47;;;12.13;51.89
43115;BME280;28727;50.068;14.452;2023-05-19T01:07:33;100031.78;;;12.14;51.92
43115;BME280;28727;50.068;14.452;2023-05-19T01:10:05;100034.28;;;12.07;52.07
43115;BME280;28727;50.068;14.452;2023-05-19T01:12:38;100030.63;;;12.00;52.26
43115;BME280;28727;50.068;14.452;2023-05-19T01:15:11;100025.97;;;12.02;52.30
43115;BME280;28727;50.068;14.452;2023-05-19T01:17:45;100027.47;;;12.05;52.15
43115;BME280;28727;50.068;14.452;2023-05-19T01:20:34;100028.63;;;12.02;52.58
43115;BME280;28727;50.068;14.452;2023-05-19T01:23:33;100018.53;;;11.98;52.63
43115;BME280;28727;50.068;14.452;2023-05-19T01:26:34;100024.34;;;12.01;52.54
43115;BME280;28727;50.068;14.452;2023-05-19T01:31:53;100020.97;;;11.91;52.89
43115;BME280;28727;50.068;14.452;2023-05-19T01:34:26;100028.09;;;11.82;53.22
43115;BME280;28727;50.068;14.452;2023-05-19T01:36:59;100022.75;;;11.74;53.32
43115;BME280;28727;50.068;14.452;2023-05-19T01:39:32;100023.72;;;11.73;53.59
43115;BME280;28727;50.068;14.452;2023-05-19T01:42:04;100017.31;;;11.76;53.90
43115;BME280;28727;50.068;14.452;2023-05-19T01:44:37;100018.47;;;11.81;53.52
43115;BME280;28727;50.068;14.452;2023-05-19T01:47:11;100022.59;;;11.84;53.60
43115;BME280;28727;50.068;14.452;2023-05-19T01:49:44;100026.25;;;11.83;53.46
43115;BME280;28727;50.068;14.452;2023-05-19T01:52:17;100027.88;;;11.76;53.59
43115;BME280;28727;50.068;14.452;2023-05-19T01:54:49;100029.03;;;11.73;53.67
43115;BME280;28727;50.068;14.452;2023-05-19T02:00:15;100020.41;;;11.71;53.98
43115;BME280;28727;50.068;14.452;2023-05-19T02:06:22;100029.91;;;11.82;54.21
43115;BME280;28727;50.068;14.452;2023-05-19T02:09:30;100025.69;;;11.71;54.08
43115;BME280;28727;50.068;14.452;2023-05-19T02:12:13;100025.84;;;11.70;54.21
43115;BME280;28727;50.068;14.452;2023-05-19T02:17:32;100029.06;;;11.56;54.56
43115;BME280;28727;50.068;14.452;2023-05-19T02:20:07;100025.59;;;11.55;54.80
43115;BME280;28727;50.068;14.452;2023-05-19T02:22:43;100032.06;;;11.53;55.30
43115;BME280;28727;50.068;14.452;2023-05-19T02:25:16;100027.94;;;11.58;54.99
43115;BME280;28727;50.068;14.452;2023-05-19T02:27:51;100021.88;;;11.66;54.91
43115;BME280;28727;50.068;14.452;2023-05-19T02:30:22;100016.03;;;11.62;54.75
43115;BME280;28727;50.068;14.452;2023-05-19T02:32:54;100016.53;;;11.58;55.01
43115;BME280;28727;50.068;14.452;2023-05-19T02:35:26;100013.38;;;11.54;55.33
43115;BME280;28727;50.068;14.452;2023-05-19T02:37:58;100011.25;;;11.58;55.30
43115;BME280;28727;50.068;14.452;2023-05-19T02:40:32;100001.63;;;11.57;55.36
43115;BME280;28727;50.068;14.452;2023-05-19T02:43:04;100003.78;;;11.53;55.56
43115;BME280;28727;50.068;14.452;2023-05-19T02:45:37;100005.91;;;11.49;55.54
43115;BME280;28727;50.068;14.452;2023-05-19T02:48:09;100003.59;;;11.46;55.71
43115;BME280;28727;50.068;14.452;2023-05-19T02:50:41;99998.28;;;11.46;55.86
43115;BME280;28727;50.068;14.452;2023-05-19T02:53:16;100000.53;;;11.33;56.04
43115;BME280;28727;50.068;14.452;2023-05-19T02:55:48;99995.41;;;11.32;56.11
43115;BME280;28727;50.068;14.452;2023-05-19T02:58:20;99994.22;;;11.26;56.40
43115;BME280;28727;50.068;14.452;2023-05-19T03:00:51;99996.03;;;11.26;56.32
43115;BME280;28727;50.068;14.452;2023-05-19T03:03:23;99994.22;;;11.26;56.44
43115;BME280;28727;50.068;14.452;2023-05-19T03:05:55;99992.41;;;11.27;56.40
43115;BME280;28727;50.068;14.452;2023-05-19T03:08:27;99987.25;;;11.25;56.10
43115;BME280;28727;50.068;14.452;2023-05-19T03:10:59;99984.59;;;11.17;56.30
43115;BME280;28727;50.068;14.452;2023-05-19T03:13:31;99990.97;;;11.06;56.70
43115;BME280;28727;50.068;14.452;2023-05-19T03:16:03;100002.00;;;11.02;57.03
43115;BME280;28727;50.068;14.452;2023-05-19T03:18:35;99994.06;;;11.02;57.18
43115;BME280;28727;50.068;14.452;2023-05-19T03:21:07;100003.50;;;11.04;57.24
43115;BME280;28727;50.068;14.452;2023-05-19T03:23:39;100002.06;;;11.10;57.08
43115;BME280;28727;50.068;14.452;2023-05-19T03:26:13;100003.03;;;11.09;57.16
43115;BME280;28727;50.068;14.452;2023-05-19T03:28:45;99998.72;;;11.08;57.46
43115;BME280;28727;50.068;14.452;2023-05-19T03:31:17;100000.53;;;11.07;57.37
43115;BME280;28727;50.068;14.452;2023-05-19T03:33:52;100001.38;;;11.08;57.24
43115;BME280;28727;50.068;14.452;2023-05-19T03:36:25;99998.56;;;11.01;57.32
43115;BME280;28727;50.068;14.452;2023-05-19T03:39:04;100007.09;;;10.95;58.10
43115;BME280;28727;50.068;14.452;2023-05-19T03:41:37;100003.63;;;10.95;57.51
43115;BME280;28727;50.068;14.452;2023-05-19T03:44:09;100002.94;;;10.93;58.06
43115;BME280;28727;50.068;14.452;2023-05-19T03:46:41;100004.59;;;10.94;58.02
43115;BME280;28727;50.068;14.452;2023-05-19T03:49:31;99997.03;;;10.99;57.93
43115;BME280;28727;50.068;14.452;2023-05-19T03:52:18;100001.00;;;11.03;58.03
43115;BME280;28727;50.068;14.452;2023-05-19T03:54:57;100000.38;;;11.01;57.71
43115;BME280;28727;50.068;14.452;2023-05-19T03:57:29;99990.09;;;10.98;58.13
43115;BME280;28727;50.068;14.452;2023-05-19T04:00:02;100003.19;;;11.07;57.80
43115;BME280;28727;50.068;14.452;2023-05-19T04:02:42;99993.16;;;11.11;58.06
43115;BME280;28727;50.068;14.452;2023-05-19T04:05:14;99986.88;;;11.12;57.92
43115;BME280;28727;50.068;14.452;2023-05-19T04:07:46;99996.47;;;11.13;58.08
43115;BME280;28727;50.068;14.452;2023-05-19T04:10:18;99985.72;;;11.15;58.09
43115;BME280;28727;50.068;14.452;2023-05-19T04:12:51;100000.97;;;11.21;58.05
43115;BME280;28727;50.068;14.452;2023-05-19T04:15:25;99991.22;;;11.21;57.90
43115;BME280;28727;50.068;14.452;2023-05-19T04:17:58;99999.28;;;11.20;57.81
43115;BME280;28727;50.068;14.452;2023-05-19T04:20:30;100001.59;;;11.15;58.04
43115;BME280;28727;50.068;14.452;2023-05-19T04:23:02;99996.91;;;11.08;57.89
43115;BME280;28727;50.068;14.452;2023-05-19T04:25:37;99993.78;;;11.05;58.28
43115;BME280;28727;50.068;14.452;2023-05-19T04:28:11;99999.88;;;11.05;58.04
43115;BME280;28727;50.068;14.452;2023-05-19T04:30:43;99994.81;;;11.12;58.26
43115;BME280;28727;50.068;14.452;2023-05-19T04:33:20;99999.13;;;11.13;58.13
43115;BME280;28727;50.068;14.452;2023-05-19T04:35:52;100004.91;;;11.17;58.23
43115;BME280;28727;50.068;14.452;2023-05-19T04:38:23;100001.09;;;11.19;58.13
43115;BME280;28727;50.068;14.452;2023-05-19T04:40:55;100009.38;;;11.16;58.39
43115;BME280;28727;50.068;14.452;2023-05-19T04:43:32;100003.31;;;11.24;58.10
43115;BME280;28727;50.068;14.452;2023-05-19T04:46:05;100005.97;;;11.32;57.80
43115;BME280;28727;50.068;14.452;2023-05-19T04:48:37;100005.53;;;11.44;57.69
43115;BME280;28727;50.068;14.452;2023-05-19T04:51:10;100002.41;;;11.49;57.57
43115;BME280;28727;50.068;14.452;2023-05-19T04:53:44;100002.81;;;11.54;57.71
43115;BME280;28727;50.068;14.452;2023-05-19T04:56:17;100006.97;;;11.73;57.31
43115;BME280;28727;50.068;14.452;2023-05-19T04:58:49;100011.72;;;11.87;56.98
43115;BME280;28727;50.068;14.452;2023-05-19T05:01:25;100006.94;;;11.99;56.66
43115;BME280;28727;50.068;14.452;2023-05-19T05:03:58;100011.41;;;11.98;56.42
43115;BME280;28727;50.068;14.452;2023-05-19T05:06:32;100008.28;;;11.95;56.72
43115;BME280;28727;50.068;14.452;2023-05-19T05:09:04;99999.22;;;12.13;56.41
43115;BME280;28727;50.068;14.452;2023-05-19T05:11:36;100003.88;;;12.36;55.84
43115;BME280;28727;50.068;14.452;2023-05-19T05:14:11;100002.56;;;12.48;55.43
43115;BME280;28727;50.068;14.452;2023-05-19T05:16:44;100010.03;;;12.60;55.35
43115;BME280;28727;50.068;14.452;2023-05-19T05:19:22;99999.91;;;12.64;54.48
43115;BME280;28727;50.068;14.452;2023-05-19T05:21:55;100006.22;;;12.71;54.79
43115;BME280;28727;50.068;14.452;2023-05-19T05:24:28;100004.19;;;12.73;54.31
43115;BME280;28727;50.068;14.452;2023-05-19T05:27:03;99992.63;;;12.82;54.14
43115;BME280;28727;50.068;14.452;2023-05-19T05:29:36;99996.56;;;12.94;54.12
43115;BME280;28727;50.068;14.452;2023-05-19T05:32:10;99993.94;;;12.94;53.73
43115;BME280;28727;50.068;14.452;2023-05-19T05:34:42;99994.59;;;12.88;54.09
43115;BME280;28727;50.068;14.452;2023-05-19T05:37:14;99989.09;;;13.06;53.73
43115;BME280;28727;50.068;14.452;2023-05-19T05:39:46;99987.28;;;13.15;53.55
43115;BME280;28727;50.068;14.452;2023-05-19T05:42:18;99990.22;;;13.36;52.80
43115;BME280;28727;50.068;14.452;2023-05-19T05:44:51;99984.19;;;13.50;52.76
43115;BME280;28727;50.068;14.452;2023-05-19T05:47:24;99978.75;;;13.74;51.98
43115;BME280;28727;50.068;14.452;2023-05-19T05:49:56;99987.59;;;13.98;51.88
43115;BME280;28727;50.068;14.452;2023-05-19T05:52:29;99983.66;;;14.16;51.44
43115;BME280;28727;50.068;14.452;2023-05-19T05:55:04;99985.03;;;14.35;50.70
43115;BME280;28727;50.068;14.452;2023-05-19T05:57:37;99985.34;;;14.40;49.87
43115;BME280;28727;50.068;14.452;2023-05-19T06:00:13;99989.88;;;14.31;50.49
43115;BME280;28727;50.068;14.452;2023-05-19T06:02:54;99984.06;;;14.59;50.43
43115;BME280;28727;50.068;14.452;2023-05-19T06:05:29;99986.81;;;14.65;49.99
43115;BME280;28727;50.068;14.452;2023-05-19T06:08:02;99985.50;;;14.84;49.72
43115;BME280;28727;50.068;14.452;2023-05-19T06:10:34;99978.59;;;14.75;49.23
43115;BME280;28727;50.068;14.452;2023-05-19T06:13:10;99983.00;;;14.45;50.18
43115;BME280;28727;50.068;14.452;2023-05-19T06:15:44;99983.97;;;14.67;50.48
43115;BME280;28727;50.068;14.452;2023-05-19T06:18:30;99981.19;;;14.98;49.50
43115;BME280;28727;50.068;14.452;2023-05-19T06:21:04;99988.75;;;15.24;49.10
43115;BME280;28727;50.068;14.452;2023-05-19T06:23:36;99988.47;;;15.48;48.26
43115;BME280;28727;50.068;14.452;2023-05-19T06:26:11;99978.66;;;15.48;49.57
43115;BME280;28727;50.068;14.452;2023-05-19T06:28:43;99987.72;;;15.83;48.26
43115;BME280;28727;50.068;14.452;2023-05-19T06:31:15;99988.28;;;16.15;47.39
43115;BME280;28727;50.068;14.452;2023-05-19T06:33:55;99981.13;;;16.58;46.80
43115;BME280;28727;50.068;14.452;2023-05-19T06:36:28;99989.38;;;16.63;45.35
43115;BME280;28727;50.068;14.452;2023-05-19T06:39:02;99988.56;;;16.62;46.01
43115;BME280;28727;50.068;14.452;2023-05-19T06:41:35;99983.09;;;16.70;45.07
43115;BME280;28727;50.068;14.452;2023-05-19T06:44:08;99983.91;;;16.50;45.87
43115;BME280;28727;50.068;14.452;2023-05-19T06:46:39;99978.72;;;16.84;45.70
43115;BME280;28727;50.068;14.452;2023-05-19T06:49:12;99978.75;;;17.18;44.39
43115;BME280;28727;50.068;14.452;2023-05-19T06:51:48;99987.75;;;17.52;44.47
43115;BME280;28727;50.068;14.452;2023-05-19T06:54:22;99984.28;;;17.99;43.88
43115;BME280;28727;50.068;14.452;2023-05-19T06:56:54;99984.56;;;18.30;43.25
43115;BME280;28727;50.068;14.452;2023-05-19T06:59:26;99989.78;;;18.71;42.23
43115;BME280;28727;50.068;14.452;2023-05-19T07:01:58;99981.56;;;18.73;41.38
43115;BME280;28727;50.068;14.452;2023-05-19T07:04:30;99986.91;;;18.73;41.27
43115;BME280;28727;50.068;14.452;2023-05-19T07:07:02;99994.28;;;19.04;39.91
43115;BME280;28727;50.068;14.452;2023-05-19T07:09:37;99993.66;;;19.21;39.74
43115;BME280;28727;50.068;14.452;2023-05-19T07:12:09;99998.00;;;19.16;39.34
43115;BME280;28727;50.068;14.452;2023-05-19T07:14:41;99999.88;;;18.83;40.45
43115;BME280;28727;50.068;14.452;2023-05-19T07:17:14;99989.56;;;18.86;40.72
43115;BME280;28727;50.068;14.452;2023-05-19T07:19:48;99986.63;;;19.34;39.97
43115;BME280;28727;50.068;14.452;2023-05-19T07:22:20;99985.16;;;19.51;39.47
43115;BME280;28727;50.068;14.452;2023-05-19T07:24:55;99983.94;;;19.40;39.74
43115;BME280;28727;50.068;14.452;2023-05-19T07:27:27;99979.22;;;19.93;38.82
43115;BME280;28727;50.068;14.452;2023-05-19T07:29:59;99975.53;;;20.26;37.85
43115;BME280;28727;50.068;14.452;2023-05-19T07:32:31;99980.28;;;20.24;37.63
43115;BME280;28727;50.068;14.452;2023-05-19T07:35:07;99991.50;;;20.14;37.49
43115;BME280;28727;50.068;14.452;2023-05-19T07:37:39;99982.91;;;19.99;37.56
43115;BME280;28727;50.068;14.452;2023-05-19T07:40:12;99988.56;;;20.22;37.18
43115;BME280;28727;50.068;14.452;2023-05-19T07:42:48;99993.22;;;20.02;37.85
43115;BME280;28727;50.068;14.452;2023-05-19T07:45:20;99984.25;;;19.77;38.11
43115;BME280;28727;50.068;14.452;2023-05-19T07:47:52;99997.34;;;19.53;38.52
43115;BME280;28727;50.068;14.452;2023-05-19T07:50:25;99975.81;;;19.73;38.44
43115;BME280;28727;50.068;14.452;2023-05-19T07:52:57;99979.84;;;20.27;37.75
43115;BME280;28727;50.068;14.452;2023-05-19T07:55:29;99983.88;;;20.11;36.91
43115;BME280;28727;50.068;14.452;2023-05-19T07:58:01;99974.72;;;19.87;37.86
43115;BME280;28727;50.068;14.452;2023-05-19T08:00:33;99977.19;;;19.89;36.87
43115;BME280;28727;50.068;14.452;2023-05-19T08:03:06;99972.66;;;19.89;36.70
43115;BME280;28727;50.068;14.452;2023-05-19T08:05:39;99976.34;;;19.95;37.08
43115;BME280;28727;50.068;14.452;2023-05-19T08:08:11;99973.06;;;19.86;37.04
43115;BME280;28727;50.068;14.452;2023-05-19T08:10:43;99975.59;;;19.75;37.25
43115;BME280;28727;50.068;14.452;2023-05-19T08:13:15;99975.91;;;19.47;36.95
43115;BME280;28727;50.068;14.452;2023-05-19T08:15:47;99972.03;;;19.03;37.49
43115;BME280;28727;50.068;14.452;2023-05-19T08:18:19;99975.78;;;18.96;38.10
43115;BME280;28727;50.068;14.452;2023-05-19T08:20:54;99971.22;;;19.16;38.22
43115;BME280;28727;50.068;14.452;2023-05-19T08:23:26;99962.13;;;19.88;37.20
43115;BME280;28727;50.068;14.452;2023-05-19T08:25:59;99954.88;;;19.95;37.30
43115;BME280;28727;50.068;14.452;2023-05-19T08:28:31;99958.25;;;20.15;36.87
43115;BME280;28727;50.068;14.452;2023-05-19T08:31:03;99962.94;;;20.58;37.33
43115;BME280;28727;50.068;14.452;2023-05-19T08:33:38;99970.84;;;20.53;36.72
43115;BME280;28727;50.068;14.452;2023-05-19T08:36:10;99955.06;;;20.38;36.80
43115;BME280;28727;50.068;14.452;2023-05-19T08:38:42;99948.69;;;20.82;37.07
43115;BME280;28727;50.068;14.452;2023-05-19T08:41:14;99947.50;;;20.78;36.85
43115;BME280;28727;50.068;14.452;2023-05-19T08:43:48;99949.06;;;20.67;36.92
43115;BME280;28727;50.068;14.452;2023-05-19T08:46:20;99942.63;;;21.11;36.20
43115;BME280;28727;50.068;14.452;2023-05-19T08:49:00;99948.41;;;21.33;35.59
43115;BME280;28727;50.068;14.452;2023-05-19T08:54:32;99943.72;;;21.47;35.10
43115;BME280;28727;50.068;14.452;2023-05-19T08:57:09;99939.84;;;21.43;35.05
43115;BME280;28727;50.068;14.452;2023-05-19T08:59:42;99937.38;;;21.41;34.58
43115;BME280;28727;50.068;14.452;2023-05-19T09:02:15;99941.88;;;21.04;34.85
43115;BME280;28727;50.068;14.452;2023-05-19T09:04:47;99936.06;;;20.64;35.96
43115;BME280;28727;50.068;14.452;2023-05-19T09:07:20;99938.94;;;20.88;36.25
43115;BME280;28727;50.068;14.452;2023-05-19T09:09:53;99934.53;;;20.93;35.86
43115;BME280;28727;50.068;14.452;2023-05-19T09:12:25;99923.09;;;21.41;35.24
43115;BME280;28727;50.068;14.452;2023-05-19T09:14:57;99917.69;;;21.77;34.40
43115;BME280;28727;50.068;14.452;2023-05-19T09:17:30;99914.44;;;21.87;34.38
43115;BME280;28727;50.068;14.452;2023-05-19T09:20:03;99912.91;;;22.09;33.94
43115;BME280;28727;50.068;14.452;2023-05-19T09:22:45;99918.56;;;21.89;34.04
43115;BME280;28727;50.068;14.452;2023-05-19T09:25:22;99907.84;;;21.71;34.46
43115;BME280;28727;50.068;14.452;2023-05-19T09:27:54;99903.63;;;21.75;34.01
43115;BME280;28727;50.068;14.452;2023-05-19T09:30:26;99915.88;;;21.89;33.85
43115;BME280;28727;50.068;14.452;2023-05-19T09:32:58;99911.06;;;21.91;34.07
43115;BME280;28727;50.068;14.452;2023-05-19T09:35:30;99907.81;;;22.31;33.14
43115;BME280;28727;50.068;14.452;2023-05-19T09:38:02;99913.69;;;22.51;33.83
43115;BME280;28727;50.068;14.452;2023-05-19T09:40:34;99900.34;;;22.56;33.29
43115;BME280;28727;50.068;14.452;2023-05-19T09:43:07;99912.13;;;22.09;33.70
43115;BME280;28727;50.068;14.452;2023-05-19T09:45:39;99905.88;;;21.78;34.34
43115;BME280;28727;50.068;14.452;2023-05-19T09:48:13;99898.91;;;21.89;34.40
43115;BME280;28727;50.068;14.452;2023-05-19T09:50:45;99904.31;;;22.30;34.46
43115;BME280;28727;50.068;14.452;2023-05-19T09:53:20;99900.13;;;22.46;33.36
43115;BME280;28727;50.068;14.452;2023-05-19T09:55:56;99894.38;;;22.31;33.51
43115;BME280;28727;50.068;14.452;2023-05-19T09:58:32;99888.28;;;22.35;34.10
43115;BME280;28727;50.068;14.452;2023-05-19T10:01:08;99885.72;;;22.52;34.63
43115;BME280;28727;50.068;14.452;2023-05-19T10:03:41;99892.72;;;22.30;34.12
43115;BME280;28727;50.068;14.452;2023-05-19T10:06:13;99887.31;;;21.58;35.07
43115;BME280;28727;50.068;14.452;2023-05-19T10:08:46;99896.16;;;21.29;35.80
43115;BME280;28727;50.068;14.452;2023-05-19T10:11:22;99895.56;;;21.27;36.39
43115;BME280;28727;50.068;14.452;2023-05-19T10:13:54;99901.47;;;21.17;36.30
43115;BME280;28727;50.068;14.452;2023-05-19T10:16:26;99900.50;;;20.87;36.50
43115;BME280;28727;50.068;14.452;2023-05-19T10:19:00;99888.22;;;20.98;36.93
43115;BME280;28727;50.068;14.452;2023-05-19T10:21:33;99900.03;;;21.33;36.23
43115;BME280;28727;50.068;14.452;2023-05-19T10:24:07;99884.22;;;21.43;35.98
43115;BME280;28727;50.068;14.452;2023-05-19T10:27:09;99875.31;;;21.61;36.17
43115;BME280;28727;50.068;14.452;2023-05-19T10:29:47;99864.75;;;21.59;35.79
43115;BME280;28727;50.068;14.452;2023-05-19T10:32:25;99885.25;;;21.42;36.35
43115;BME280;28727;50.068;14.452;2023-05-19T10:41:10;99877.94;;;21.49;36.66
43115;BME280;28727;50.068;14.452;2023-05-19T10:43:51;99877.28;;;21.17;36.79
43115;BME280;28727;50.068;14.452;2023-05-19T10:46:26;99878.00;;;20.88;37.47
43115;BME280;28727;50.068;14.452;2023-05-19T10:48:59;99875.38;;;20.81;37.88
43115;BME280;28727;50.068;14.452;2023-05-19T10:51:32;99874.38;;;20.76;37.86
43115;BME280;28727;50.068;14.452;2023-05-19T10:54:07;99868.13;;;20.82;37.47
43115;BME280;28727;50.068;14.452;2023-05-19T10:56:43;99870.09;;;21.11;37.14
43115;BME280;28727;50.068;14.452;2023-05-19T10:59:32;99869.22;;;21.17;37.30
43115;BME280;28727;50.068;14.452;2023-05-19T11:02:05;99868.44;;;20.92;37.61
43115;BME280;28727;50.068;14.452;2023-05-19T11:04:48;99866.84;;;20.66;38.35
43115;BME280;28727;50.068;14.452;2023-05-19T11:07:26;99871.81;;;20.63;38.26
43115;BME280;28727;50.068;14.452;2023-05-19T11:09:58;99870.81;;;20.39;38.87
43115;BME280;28727;50.068;14.452;2023-05-19T11:12:39;99867.38;;;20.32;38.98
43115;BME280;28727;50.068;14.452;2023-05-19T11:15:13;99856.09;;;20.48;39.16
43115;BME280;28727;50.068;14.452;2023-05-19T11:17:47;99860.22;;;20.69;39.10
43115;BME280;28727;50.068;14.452;2023-05-19T11:20:27;99860.44;;;20.67;39.17
43115;BME280;28727;50.068;14.452;2023-05-19T11:23:08;99862.47;;;20.72;39.35
43115;BME280;28727;50.068;14.452;2023-05-19T11:25:43;99860.44;;;20.67;39.38
43115;BME280;28727;50.068;14.452;2023-05-19T11:28:17;99857.72;;;20.49;39.47
43115;BME280;28727;50.068;14.452;2023-05-19T11:30:54;99848.84;;;20.49;40.03
43115;BME280;28727;50.068;14.452;2023-05-19T11:33:31;99855.44;;;20.71;39.65
43115;BME280;28727;50.068;14.452;2023-05-19T11:36:03;99853.66;;;20.83;38.99
43115;BME280;28727;50.068;14.452;2023-05-19T11:38:36;99850.09;;;20.89;39.20
43115;BME280;28727;50.068;14.452;2023-05-19T11:41:08;99851.50;;;20.92;39.50
43115;BME280;28727;50.068;14.452;2023-05-19T11:43:40;99846.13;;;21.10;38.68
43115;BME280;28727;50.068;14.452;2023-05-19T11:46:12;99844.75;;;21.26;39.06
43115;BME280;28727;50.068;14.452;2023-05-19T11:48:46;99845.16;;;21.04;38.73
43115;BME280;28727;50.068;14.452;2023-05-19T11:51:20;99853.34;;;20.55;39.98
43115;BME280;28727;50.068;14.452;2023-05-19T11:53:52;99839.00;;;20.42;40.61
43115;BME280;28727;50.068;14.452;2023-05-19T11:56:25;99855.28;;;20.16;40.53
43115;BME280;28727;50.068;14.452;2023-05-19T11:58:57;99845.31;;;19.98;41.38
43115;BME280;28727;50.068;14.452;2023-05-19T12:01:29;99843.13;;;20.14;41.08
43115;BME280;28727;50.068;14.452;2023-05-19T12:04:10;99829.50;;;20.40;40.94
43115;BME280;28727;50.068;14.452;2023-05-19T12:06:42;99836.63;;;20.53;40.71
43115;BME280;28727;50.068;14.452;2023-05-19T12:09:14;99839.53;;;20.51;40.40
43115;BME280;28727;50.068;14.452;2023-05-19T12:11:46;99841.69;;;20.42;40.35
43115;BME280;28727;50.068;14.452;2023-05-19T12:14:18;99827.78;;;20.21;40.73
43115;BME280;28727;50.068;14.452;2023-05-19T12:16:50;99836.72;;;20.15;41.46
43115;BME280;28727;50.068;14.452;2023-05-19T12:19:23;99837.16;;;20.12;41.31
43115;BME280;28727;50.068;14.452;2023-05-19T12:21:56;99848.84;;;19.92;41.65
43115;BME280;28727;50.068;14.452;2023-05-19T12:24:28;99838.94;;;19.61;41.87
43115;BME280;28727;50.068;14.452;2023-05-19T12:27:22;99840.00;;;19.60;41.95
43115;BME280;28727;50.068;14.452;2023-05-19T12:29:55;99847.75;;;19.69;42.11
43115;BME280;28727;50.068;14.452;2023-05-19T12:32:32;99842.50;;;19.55;42.57
43115;BME280;28727;50.068;14.452;2023-05-19T12:35:06;99838.00;;;19.43;43.00
43115;BME280;28727;50.068;14.452;2023-05-19T12:37:42;99842.59;;;19.29;43.51
43115;BME280;28727;50.068;14.452;2023-05-19T12:40:15;99837.88;;;19.25;43.22
43115;BME280;28727;50.068;14.452;2023-05-19T12:42:48;99831.94;;;19.16;43.44
43115;BME280;28727;50.068;14.452;2023-05-19T12:45:23;99835.59;;;19.28;43.47
43115;BME280;28727;50.068;14.452;2023-05-19T12:48:01;99831.28;;;19.20;43.61
43115;BME280;28727;50.068;14.452;2023-05-19T12:50:35;99831.06;;;19.22;43.71
43115;BME280;28727;50.068;14.452;2023-05-19T12:53:09;99836.47;;;19.15;43.51
43115;BME280;28727;50.068;14.452;2023-05-19T12:55:43;99824.75;;;19.03;44.05
43115;BME280;28727;50.068;14.452;2023-05-19T12:58:16;99829.28;;;19.03;44.24
43115;BME280;28727;50.068;14.452;2023-05-19T13:00:48;99828.44;;;19.09;44.66
43115;BME280;28727;50.068;14.452;2023-05-19T13:03:23;99832.34;;;19.19;44.51
43115;BME280;28727;50.068;14.452;2023-05-19T13:05:56;99830.53;;;19.07;44.42
43115;BME280;28727;50.068;14.452;2023-05-19T13:08:30;99840.44;;;19.00;44.57
43115;BME280;28727;50.068;14.452;2023-05-19T13:11:02;99830.53;;;19.07;44.65
43115;BME280;28727;50.068;14.452;2023-05-19T13:13:34;99821.69;;;19.06;44.89
43115;BME280;28727;50.068;14.452;2023-05-19T13:16:06;99833.00;;;19.08;45.11
43115;BME280;28727;50.068;14.452;2023-05-19T13:18:38;99823.88;;;19.16;44.59
43115;BME280;28727;50.068;14.452;2023-05-19T13:21:10;99827.47;;;18.97;44.94
43115;BME280;28727;50.068;14.452;2023-05-19T13:23:42;99818.00;;;18.94;44.96
43115;BME280;28727;50.068;14.452;2023-05-19T13:26:14;99825.66;;;18.91;44.76
43115;BME280;28727;50.068;14.452;2023-05-19T13:28:49;99828.75;;;18.88;44.88
43115;BME280;28727;50.068;14.452;2023-05-19T13:31:21;99815.34;;;18.88;45.83
43115;BME280;28727;50.068;14.452;2023-05-19T13:33:53;99816.94;;;19.08;45.43
43115;BME280;28727;50.068;14.452;2023-05-19T13:36:25;99822.06;;;19.10;45.30
43115;BME280;28727;50.068;14.452;2023-05-19T13:38:58;99824.75;;;19.10;45.03
43115;BME280;28727;50.068;14.452;2023-05-19T13:41:31;99814.06;;;18.97;45.05
43115;BME280;28727;50.068;14.452;2023-05-19T13:44:03;99819.25;;;18.85;45.09